FVGB weather

Gombera Airport
Gombera Ranch, Mashonaland West Province, Zimbabwe

Public forecast

Using degrees Celsius for public forecast. Weather courtesy of forecast.io.

METAR (pilot weather report)

Closest report is Robert Gabriel Mugabe International Airport, 72.0 nm (133.3 km) SE. Retrieved 2019/05/19 17:00 UTC (54 minutes ago):

FVRG 191700Z 15007KT 120V180 CAVOK 18/08 Q1024 NOSIG

TAF (pilot weather forecast)

Forecast is more than 6 hours old.

Closest forecast is Robert Gabriel Mugabe International Airport, 72.0 nm (133.3 km) SE. Retrieved 2019/05/19 06:00 UTC (12 hours ago):

TAF FVRG 190400Z 1906/2012 11007KT 9999 FEW025 BECMG 1907/1909 BKN040 PROB30 TEMPO 1912/1918 -SHRA FM192000 CAVOK